Aérodrome :
LOGIN :

S'inscrire | Disclaimer

   EN    FR    IT 

 










Légende :    VFR   VFR Marginal   IFR   IFR Intensif   IFR Très Intensif
Visi : 
Plafond : 
>= 8 km
>= 3000ft
5 à 8 km
1000 à 3000 ft
1500m à 5 km
500 à 1000 ft
800 à 1500m
200 à 500 ft
< 800m
< 200 ft
Symboles :   Orages  Brouillard  Fortes neiges  Fortes précipitations  Vent > 20 kt
SIGMETs :   Divers  Orages  Givrage  Turbulence  Onde Orograph.  Cendres Volcan.







- Altitude de l'aérodrome : 184 ft
- Code IATA : BRU


EBBR - Bruxelles

DERNIER METAR :
  • 180450Z 18005KT CAVOK M01/M03 Q1025 NOSIG

METARs EXPIRÉS :
  • 180420Z 19006KT CAVOK M01/M02 Q1025 NOSIG
  • 180350Z 19006KT CAVOK M01/M02 Q1025 TEMPO 4500 BR
  • 180320Z 19006KT CAVOK M01/M03 Q1024 BECMG 4500 BR
  • 180250Z 18005KT CAVOK M02/M04 Q1024 BECMG 4500 BR
  • 180220Z 00000KT CAVOK M02/M03 Q1025 NOSIG

TAF TAF EBBR
Valide du 18 à 00h jusqu'au 19 à 06h UTC


172300Z 1800/1906 16003KT 8000 NSC
BECMG 1801/1803 3500 BR
PROB30
TEMPO 1804/1809 0400 FZFG VV001
BECMG 1808/1810 9999 NSW
Pas de NOTAMs connus pour ce terrain.



MET'MAP, la Météo Aéronautique d'un coup d'oeil ! - Copyright ORBIFLY Décembre 2007 - Disclaimer

ORBIFLY MET'MAP TEAM :

Programmation & Développement : Alexandra Zaïnal
Conception & Développement : Baudouin d'Aumeries
Co-Programmation & Développement : Marc-Olivier Méhu
Soutien technique & logistique : Manuel Goepfert

Contact : metmap@orbifly.com




SOURCES & CREDITS :

   NOAA